Time;durP1;ratioP1;P1;durP2;ratioP2;P2;SDS_P1;SDS_P2;PMS_P1;PMS_P2;Temp;Humidity;BMP_temperature;BMP_pressure;BME280_temperature;BME280_humidity;BME280_pressure;Samples;Min_cycle;Max_cycle;Signal;HPM_P1;HPM_P2
2021/09/12 00:00:35;;;;;;;15.48;6.28;;;18.20;93.10;;;;;;5053610;28;20488;-75
2021/09/12 00:03:01;;;;;;;18.05;6.35;;;18.10;93.00;;;;;;5054811;28;20028;-75
2021/09/12 00:05:27;;;;;;;18.20;7.60;;;18.20;93.10;;;;;;5053718;28;20639;-75
2021/09/12 00:07:53;;;;;;;18.05;7.47;;;18.20;93.10;;;;;;5053117;28;20021;-75
2021/09/12 00:10:18;;;;;;;20.80;7.95;;;18.20;93.10;;;;;;5054499;28;20363;-75
2021/09/12 00:12:44;;;;;;;18.75;8.32;;;18.20;93.20;;;;;;5052954;28;20076;-75
2021/09/12 00:15:13;;;;;;;18.52;8.52;;;18.10;93.20;;;;;;5053222;28;20027;-75
2021/09/12 00:17:39;;;;;;;14.77;8.40;;;18.10;93.10;;;;;;5054610;28;20489;-76
2021/09/12 00:20:06;;;;;;;23.13;10.00;;;18.10;93.10;;;;;;5053108;28;20033;-75
2021/09/12 00:22:33;;;;;;;21.65;9.43;;;18.10;93.20;;;;;;5053385;28;20385;-76
2021/09/12 00:24:59;;;;;;;22.90;9.82;;;18.10;93.20;;;;;;5054544;28;20099;-76
2021/09/12 00:27:25;;;;;;;29.55;10.80;;;18.10;93.20;;;;;;5054390;28;20421;-75
2021/09/12 00:29:51;;;;;;;18.20;9.80;;;18.10;93.20;;;;;;5054148;28;20029;-76
2021/09/12 00:32:16;;;;;;;22.85;10.27;;;18.10;93.20;;;;;;5053138;28;20021;-76
2021/09/12 00:34:42;;;;;;;22.73;11.73;;;18.10;93.20;;;;;;5053174;28;20027;-76
2021/09/12 00:37:08;;;;;;;18.42;9.68;;;18.10;93.30;;;;;;5053340;28;20028;-75
2021/09/12 00:39:33;;;;;;;26.25;12.23;;;18.10;93.30;;;;;;5053124;28;20075;-76
2021/09/12 00:41:59;;;;;;;21.15;11.95;;;18.10;93.20;;;;;;5055024;28;20087;-74
2021/09/12 00:44:25;;;;;;;22.67;11.43;;;18.00;93.20;;;;;;5054007;28;20039;-76
2021/09/12 00:46:53;;;;;;;19.98;11.27;;;18.00;93.30;;;;;;5054302;28;20116;-76
2021/09/12 00:49:19;;;;;;;29.92;12.52;;;18.00;93.30;;;;;;5053995;28;20033;-75
2021/09/12 00:51:45;;;;;;;22.90;11.77;;;18.00;93.30;;;;;;5053858;28;20342;-75
2021/09/12 00:54:12;;;;;;;23.48;11.45;;;18.00;93.30;;;;;;5052728;28;20047;-75
2021/09/12 00:56:39;;;;;;;23.25;11.63;;;18.00;93.30;;;;;;5054282;28;20017;-75
2021/09/12 00:59:10;;;;;;;27.83;11.73;;;18.00;93.10;;;;;;5053767;28;20478;-75
2021/09/12 01:01:36;;;;;;;22.98;12.20;;;18.00;93.20;;;;;;5053841;28;20033;-76
2021/09/12 01:04:02;;;;;;;23.05;11.98;;;17.90;93.30;;;;;;5054205;28;20036;-76
2021/09/12 01:06:30;;;;;;;25.95;12.05;;;18.00;93.70;;;;;;5054102;28;20020;-75
2021/09/12 01:08:55;;;;;;;25.23;12.18;;;17.90;93.40;;;;;;5054589;28;20029;-77
2021/09/12 01:11:21;;;;;;;17.52;10.55;;;17.90;93.30;;;;;;5054757;28;20035;-76
2021/09/12 01:13:47;;;;;;;21.13;11.48;;;17.90;93.20;;;;;;5055266;28;20131;-75
2021/09/12 01:16:16;;;;;;;15.65;10.52;;;17.90;93.20;;;;;;5053471;28;20057;-76
2021/09/12 01:18:43;;;;;;;22.63;12.18;;;17.90;93.10;;;;;;5053760;28;20063;-75
2021/09/12 01:21:10;;;;;;;27.48;12.27;;;17.80;93.20;;;;;;5052314;28;20118;-76
2021/09/12 01:23:36;;;;;;;23.42;13.57;;;17.80;93.20;;;;;;5051676;28;20370;-77
2021/09/12 01:26:02;;;;;;;24.98;12.13;;;17.80;93.20;;;;;;5052648;28;20031;-76
2021/09/12 01:28:27;;;;;;;24.77;12.65;;;17.80;93.20;;;;;;5062308;28;20039;-76
2021/09/12 01:30:53;;;;;;;24.15;12.13;;;17.80;93.20;;;;;;5061782;28;20032;-75
2021/09/12 01:33:19;;;;;;;20.98;13.68;;;17.80;93.30;;;;;;5070350;28;20032;-76
2021/09/12 01:35:45;;;;;;;26.77;12.95;;;17.70;93.30;;;;;;5054186;28;20017;-77
2021/09/12 01:38:10;;;;;;;22.58;13.00;;;17.70;93.30;;;;;;5052024;28;20108;-75
2021/09/12 01:40:36;;;;;;;24.15;13.48;;;17.70;93.40;;;;;;5051798;28;20489;-76
2021/09/12 01:43:02;;;;;;;20.38;12.10;;;17.70;93.30;;;;;;5053285;28;20492;-75
2021/09/12 01:45:27;;;;;;;22.92;12.40;;;17.70;93.40;;;;;;5051796;28;20450;-75
2021/09/12 01:47:59;;;;;;;22.52;13.30;;;17.60;93.30;;;;;;5051901;28;20021;-75
2021/09/12 01:50:26;;;;;;;19.98;12.05;;;17.60;93.30;;;;;;5053136;28;20082;-75
2021/09/12 01:52:52;;;;;;;22.92;12.50;;;17.60;93.20;;;;;;5051764;28;20113;-75
2021/09/12 01:55:17;;;;;;;19.88;11.07;;;17.60;93.30;;;;;;5051778;28;20028;-75
2021/09/12 01:57:43;;;;;;;24.58;12.55;;;17.60;93.30;;;;;;5053166;28;20056;-76
2021/09/12 02:00:09;;;;;;;21.77;11.98;;;17.50;93.30;;;;;;5052488;28;20044;-76
2021/09/12 02:02:35;;;;;;;26.02;12.32;;;17.50;93.30;;;;;;5053218;28;20462;-76
2021/09/12 02:05:01;;;;;;;20.50;11.32;;;17.50;93.40;;;;;;5051610;28;20466;-76
2021/09/12 02:07:27;;;;;;;20.88;12.02;;;17.50;93.30;;;;;;5051300;28;20052;-75
2021/09/12 02:09:53;;;;;;;20.30;10.10;;;17.40;93.30;;;;;;5051266;28;20044;-76
2021/09/12 02:12:19;;;;;;;24.27;11.77;;;17.40;93.30;;;;;;5051009;28;20432;-76
2021/09/12 02:14:45;;;;;;;22.23;10.98;;;17.30;93.30;;;;;;5052605;28;20104;-76
2021/09/12 02:17:10;;;;;;;23.13;10.65;;;17.30;93.20;;;;;;5052573;28;20086;-76
2021/09/12 02:19:36;;;;;;;23.42;11.35;;;17.20;93.20;;;;;;5052787;28;20021;-76
2021/09/12 02:22:02;;;;;;;15.02;10.18;;;17.20;93.10;;;;;;5051084;28;20037;-76
2021/09/12 02:24:27;;;;;;;19.80;9.40;;;17.20;93.20;;;;;;5051982;28;20036;-76
2021/09/12 02:26:53;;;;;;;24.42;11.23;;;17.10;93.20;;;;;;5050836;28;20029;-75
2021/09/12 02:29:19;;;;;;;19.83;10.27;;;17.10;93.20;;;;;;5051960;28;20037;-75
2021/09/12 02:31:44;;;;;;;21.02;11.13;;;17.10;93.20;;;;;;5052608;28;20028;-75
2021/09/12 02:34:10;;;;;;;20.23;11.15;;;17.00;93.00;;;;;;5050936;28;20383;-76
2021/09/12 02:36:35;;;;;;;20.98;11.70;;;17.00;93.10;;;;;;5055367;28;20029;-75
2021/09/12 02:39:02;;;;;;;20.38;8.55;;;17.00;93.10;;;;;;5055343;28;20017;-75
2021/09/12 02:41:27;;;;;;;19.75;10.55;;;16.90;93.00;;;;;;5055969;28;20434;-76
2021/09/12 02:43:53;;;;;;;19.58;10.35;;;16.90;93.10;;;;;;5056290;28;20060;-76
2021/09/12 02:46:18;;;;;;;19.00;9.50;;;16.80;93.00;;;;;;5055281;28;20021;-76
2021/09/12 02:48:44;;;;;;;17.70;9.30;;;16.80;93.00;;;;;;5056275;28;20450;-75
2021/09/12 02:51:10;;;;;;;18.90;9.45;;;16.80;92.80;;;;;;5056316;28;20025;-77
2021/09/12 02:53:35;;;;;;;17.45;9.50;;;16.70;92.70;;;;;;5055708;28;20025;-76
2021/09/12 02:56:01;;;;;;;19.67;9.65;;;16.70;92.80;;;;;;5054920;28;20028;-76
2021/09/12 02:58:26;;;;;;;20.38;10.25;;;16.70;93.00;;;;;;5055814;28;20029;-77
2021/09/12 03:00:52;;;;;;;21.55;10.02;;;16.70;92.90;;;;;;5054656;28;20029;-75
2021/09/12 03:03:17;;;;;;;17.42;8.63;;;16.60;93.00;;;;;;5056003;28;20029;-76
2021/09/12 03:05:43;;;;;;;17.27;8.45;;;16.60;93.00;;;;;;5054822;28;20401;-76
2021/09/12 03:08:09;;;;;;;15.10;7.75;;;16.60;92.90;;;;;;5054611;28;20052;-76
2021/09/12 03:10:34;;;;;;;11.57;7.53;;;16.60;92.70;;;;;;5054405;28;20032;-75
2021/09/12 03:13:00;;;;;;;15.45;6.85;;;16.50;92.60;;;;;;5054519;28;20145;-75
2021/09/12 03:15:25;;;;;;;18.27;8.27;;;16.50;92.50;;;;;;5054391;28;20021;-76
2021/09/12 03:17:51;;;;;;;13.13;8.15;;;16.40;92.30;;;;;;5054859;28;20017;-76
2021/09/12 03:20:17;;;;;;;21.95;8.43;;;16.40;92.30;;;;;;5057017;28;20033;-76
2021/09/12 03:22:42;;;;;;;14.45;8.02;;;16.30;92.30;;;;;;5066542;28;20005;-74
2021/09/12 03:25:08;;;;;;;15.50;7.97;;;16.30;92.30;;;;;;5064735;28;20021;-75
2021/09/12 03:27:34;;;;;;;18.40;9.77;;;16.20;92.30;;;;;;5060094;28;20781;-75
2021/09/12 03:30:00;;;;;;;15.25;8.70;;;16.20;92.40;;;;;;5071669;28;20128;-75
2021/09/12 03:32:26;;;;;;;15.98;9.02;;;16.10;92.40;;;;;;5054206;28;20032;-75
2021/09/12 03:34:52;;;;;;;18.27;9.20;;;16.10;92.50;;;;;;5054494;28;20048;-75
2021/09/12 03:37:18;;;;;;;20.27;9.85;;;16.00;92.50;;;;;;5054882;28;20057;-76
2021/09/12 03:39:43;;;;;;;23.20;10.05;;;16.00;92.50;;;;;;5055595;28;20475;-75
2021/09/12 03:42:09;;;;;;;16.58;9.50;;;15.90;92.50;;;;;;5055330;28;20048;-75
2021/09/12 03:44:34;;;;;;;25.17;10.60;;;15.90;92.70;;;;;;5055105;28;20021;-75
2021/09/12 03:47:00;;;;;;;22.15;10.38;;;15.90;92.70;;;;;;5054475;28;20363;-76
2021/09/12 03:49:25;;;;;;;18.17;10.25;;;15.80;92.70;;;;;;5055126;28;20036;-75
2021/09/12 03:51:51;;;;;;;22.15;11.75;;;15.80;92.80;;;;;;5055444;28;20032;-75
2021/09/12 03:54:17;;;;;;;25.73;11.20;;;15.80;93.00;;;;;;5053946;28;20055;-75
2021/09/12 03:56:42;;;;;;;20.58;11.38;;;15.70;93.00;;;;;;5055322;28;20094;-76
2021/09/12 03:59:08;;;;;;;25.73;11.55;;;15.70;92.90;;;;;;5055468;28;20052;-75
2021/09/12 04:01:33;;;;;;;26.17;12.40;;;15.60;92.80;;;;;;5054886;28;20078;-76
2021/09/12 04:03:59;;;;;;;19.20;10.93;;;15.60;92.80;;;;;;5054568;28;20545;-76
2021/09/12 04:06:25;;;;;;;22.58;11.32;;;15.50;92.80;;;;;;5055031;28;20039;-75
2021/09/12 04:08:51;;;;;;;17.08;10.38;;;15.60;92.90;;;;;;5053807;28;20021;-76
2021/09/12 04:11:17;;;;;;;25.27;12.30;;;15.50;93.00;;;;;;5054895;28;20036;-76
2021/09/12 04:13:43;;;;;;;22.25;13.90;;;15.50;93.00;;;;;;5054903;28;20389;-75
2021/09/12 04:16:08;;;;;;;20.83;10.50;;;15.50;93.00;;;;;;5054466;28;20401;-75
2021/09/12 04:18:34;;;;;;;22.15;11.55;;;15.40;93.00;;;;;;5054913;28;20108;-76
2021/09/12 04:20:59;;;;;;;23.23;12.10;;;15.40;93.00;;;;;;5053132;28;20371;-76
2021/09/12 04:23:25;;;;;;;22.33;12.32;;;15.40;93.00;;;;;;5054775;28;20081;-76
2021/09/12 04:25:50;;;;;;;18.75;11.25;;;15.40;93.00;;;;;;5053489;28;20025;-76
2021/09/12 04:28:16;;;;;;;22.90;12.55;;;15.30;93.00;;;;;;5054123;28;20040;-76
2021/09/12 04:30:43;;;;;;;22.70;12.48;;;15.30;93.00;;;;;;5054353;28;20036;-75
2021/09/12 04:33:08;;;;;;;27.05;13.05;;;15.30;93.00;;;;;;5053132;28;20032;-75
2021/09/12 04:35:34;;;;;;;22.20;12.00;;;15.30;93.00;;;;;;5052922;28;20017;-75
2021/09/12 04:37:59;;;;;;;24.35;11.77;;;15.20;93.10;;;;;;5054471;28;20075;-76
2021/09/12 04:40:25;;;;;;;26.40;12.48;;;15.20;93.10;;;;;;5053701;28;20119;-76
2021/09/12 04:42:50;;;;;;;24.05;13.27;;;15.20;93.10;;;;;;5054123;28;20104;-75
2021/09/12 04:45:16;;;;;;;29.13;12.77;;;15.20;93.10;;;;;;5054371;28;20025;-75
2021/09/12 04:47:42;;;;;;;22.02;12.60;;;15.20;93.10;;;;;;5052419;28;20162;-76
2021/09/12 04:50:08;;;;;;;29.23;13.95;;;15.10;93.10;;;;;;5054163;28;20453;-75
2021/09/12 04:52:33;;;;;;;24.65;13.50;;;15.10;93.10;;;;;;5052792;28;20078;-75
2021/09/12 04:54:59;;;;;;;22.42;12.15;;;15.10;93.10;;;;;;5052828;28;20116;-75
2021/09/12 04:57:25;;;;;;;30.35;13.98;;;15.00;93.10;;;;;;5053969;28;20031;-74
2021/09/12 04:59:50;;;;;;;27.08;14.18;;;15.00;93.20;;;;;;5053978;28;20025;-76
2021/09/12 05:02:16;;;;;;;28.58;15.45;;;15.00;93.20;;;;;;5054215;28;20442;-76
2021/09/12 05:04:41;;;;;;;24.23;13.88;;;15.00;93.20;;;;;;5053840;28;20060;-75
2021/09/12 05:07:07;;;;;;;25.48;14.63;;;14.90;93.30;;;;;;5053919;28;20032;-76
2021/09/12 05:09:32;;;;;;;23.75;14.15;;;14.90;93.40;;;;;;5052285;28;20539;-75
2021/09/12 05:11:58;;;;;;;20.42;13.63;;;14.90;93.40;;;;;;5052951;28;20036;-75
2021/09/12 05:14:25;;;;;;;28.88;16.08;;;14.80;93.40;;;;;;5054167;28;20021;-75
2021/09/12 05:16:51;;;;;;;34.38;15.88;;;14.80;93.40;;;;;;5053144;28;20048;-75
2021/09/12 05:19:17;;;;;;;29.13;17.17;;;14.80;93.40;;;;;;5069273;28;20009;-76
2021/09/12 05:21:42;;;;;;;29.90;16.55;;;14.80;93.50;;;;;;5061505;28;20428;-76
2021/09/12 05:24:08;;;;;;;30.50;16.98;;;14.80;93.50;;;;;;5073304;28;20028;-75
2021/09/12 05:26:33;;;;;;;30.77;16.83;;;14.80;93.50;;;;;;5059625;28;20037;-76
2021/09/12 05:28:59;;;;;;;24.42;16.20;;;14.70;93.50;;;;;;5052226;28;20516;-76
2021/09/12 05:31:25;;;;;;;27.60;15.73;;;14.70;93.60;;;;;;5053231;28;20071;-75
2021/09/12 05:33:50;;;;;;;32.75;17.55;;;14.70;93.50;;;;;;5052644;28;20025;-75
2021/09/12 05:36:16;;;;;;;28.10;16.13;;;14.70;93.60;;;;;;5052316;28;20017;-76
2021/09/12 05:38:42;;;;;;;28.73;15.32;;;14.70;93.60;;;;;;5052581;28;20589;-76
2021/09/12 05:41:07;;;;;;;31.38;16.25;;;14.80;93.50;;;;;;5052309;28;20063;-76
2021/09/12 05:43:33;;;;;;;26.20;15.20;;;14.70;93.40;;;;;;5052367;28;20025;-76
2021/09/12 05:45:58;;;;;;;28.80;16.27;;;14.80;93.50;;;;;;5053971;28;20055;-76
2021/09/12 05:48:24;;;;;;;36.22;16.98;;;14.80;93.40;;;;;;5051355;28;20025;-76
2021/09/12 05:50:52;;;;;;;34.67;16.83;;;14.80;93.30;;;;;;5052695;28;20024;-76
2021/09/12 05:53:20;;;;;;;27.00;16.63;;;14.80;93.30;;;;;;5036305;28;20174;-75
2021/09/12 05:55:47;;;;;;;25.88;15.88;;;14.90;93.30;;;;;;5031717;28;20454;-77
2021/09/12 05:58:13;;;;;;;28.23;16.83;;;14.90;93.30;;;;;;5032275;28;20103;-75
2021/09/12 06:00:38;;;;;;;28.48;16.20;;;14.90;93.20;;;;;;5033011;28;20489;-76
2021/09/12 06:03:04;;;;;;;32.80;17.75;;;15.00;93.20;;;;;;5032838;28;20025;-76
2021/09/12 06:05:29;;;;;;;32.58;17.65;;;15.00;93.20;;;;;;5032779;28;20026;-76
2021/09/12 06:07:55;;;;;;;28.52;16.73;;;15.10;93.10;;;;;;5033393;28;20021;-76
2021/09/12 06:10:24;;;;;;;26.50;16.83;;;15.10;93.00;;;;;;5031662;28;20057;-76
2021/09/12 06:12:49;;;;;;;30.02;16.33;;;15.20;92.90;;;;;;5031785;28;20022;-77
2021/09/12 06:15:18;;;;;;;25.17;16.02;;;15.20;92.70;;;;;;5039790;28;20025;-75
2021/09/12 06:17:43;;;;;;;25.25;16.25;;;15.20;92.70;;;;;;5042129;28;20013;-76
2021/09/12 06:20:09;;;;;;;29.60;17.48;;;15.20;92.70;;;;;;5040953;28;20029;-76
2021/09/12 06:22:42;;;;;;;34.85;16.58;;;15.20;92.70;;;;;;5041050;28;20113;-76
2021/09/12 06:25:08;;;;;;;27.63;16.48;;;15.20;92.70;;;;;;5041603;28;20053;-76
2021/09/12 06:27:33;;;;;;;26.88;17.20;;;15.30;92.70;;;;;;5040266;28;20048;-76
2021/09/12 06:29:59;;;;;;;30.73;17.02;;;15.40;92.60;;;;;;5039325;28;20064;-76
2021/09/12 06:32:27;;;;;;;28.52;17.27;;;15.40;92.50;;;;;;5039708;28;20017;-77
2021/09/12 06:34:53;;;;;;;30.23;16.33;;;15.50;92.40;;;;;;5044224;28;20017;-77
2021/09/12 06:37:18;;;;;;;25.10;17.15;;;15.60;92.20;;;;;;5040629;28;20075;-75
2021/09/12 06:39:44;;;;;;;25.45;17.80;;;15.60;92.10;;;;;;5041585;28;20220;-76
2021/09/12 06:42:10;;;;;;;21.83;15.98;;;15.70;92.00;;;;;;5041578;28;20041;-76
2021/09/12 06:44:35;;;;;;;28.50;16.83;;;15.80;91.90;;;;;;5033643;28;20020;-74
2021/09/12 06:47:01;;;;;;;31.33;16.58;;;15.90;92.00;;;;;;5032822;28;20135;-77
2021/09/12 06:49:27;;;;;;;29.35;16.50;;;16.10;91.70;;;;;;5033003;28;20022;-75
2021/09/12 06:51:52;;;;;;;27.92;16.90;;;16.30;91.30;;;;;;5032448;28;20026;-75
2021/09/12 06:54:18;;;;;;;21.95;14.95;;;16.40;91.00;;;;;;5031512;28;20029;-77
2021/09/12 06:56:43;;;;;;;22.98;16.00;;;16.50;91.00;;;;;;5031833;28;20018;-75
2021/09/12 06:59:09;;;;;;;27.95;17.33;;;16.50;90.30;;;;;;5031494;28;20032;-76
2021/09/12 07:01:35;;;;;;;29.13;14.85;;;16.70;90.40;;;;;;5032239;28;20403;-77
2021/09/12 07:04:00;;;;;;;27.70;14.95;;;16.70;90.20;;;;;;5031135;28;20489;-77
2021/09/12 07:06:26;;;;;;;18.58;10.65;;;16.90;90.10;;;;;;5032179;28;20028;-76
2021/09/12 07:08:52;;;;;;;19.42;10.88;;;16.90;89.40;;;;;;5031460;28;20021;-75
2021/09/12 07:11:17;;;;;;;21.25;13.95;;;16.90;89.00;;;;;;5031903;28;20022;-76
2021/09/12 07:13:43;;;;;;;22.58;14.45;;;16.80;89.00;;;;;;5039381;28;20052;-76
2021/09/12 07:16:09;;;;;;;20.67;12.52;;;16.80;89.10;;;;;;5046184;28;20025;-76
2021/09/12 07:18:35;;;;;;;20.85;12.68;;;16.80;89.20;;;;;;5043010;28;20018;-75
2021/09/12 07:21:00;;;;;;;19.50;11.05;;;16.90;89.80;;;;;;5045072;28;20033;-76
2021/09/12 07:23:26;;;;;;;22.02;12.38;;;17.00;89.50;;;;;;5034906;28;20030;-76
2021/09/12 07:25:51;;;;;;;19.45;12.15;;;17.00;88.70;;;;;;5036531;28;20025;-76
2021/09/12 07:28:17;;;;;;;10.70;6.07;;;17.10;88.70;;;;;;5034527;28;20112;-79
2021/09/12 07:30:43;;;;;;;4.90;2.63;;;17.20;89.50;;;;;;5035892;28;20063;-77
2021/09/12 07:33:08;;;;;;;6.93;3.88;;;17.40;89.80;;;;;;5035540;28;20160;-77
2021/09/12 07:35:34;;;;;;;8.82;3.78;;;17.60;89.10;;;;;;5035847;28;20025;-76
2021/09/12 07:38:00;;;;;;;5.97;2.00;;;17.70;88.40;;;;;;5036503;28;20021;-76
2021/09/12 07:40:25;;;;;;;12.65;7.95;;;17.80;88.40;;;;;;5034037;28;20080;-76
2021/09/12 07:42:51;;;;;;;19.05;9.70;;;18.00;87.30;;;;;;5035665;28;20108;-77
2021/09/12 07:45:20;;;;;;;21.48;10.98;;;18.10;85.40;;;;;;5035690;28;20117;-77
2021/09/12 07:47:45;;;;;;;23.98;11.25;;;18.20;85.30;;;;;;5036452;28;20032;-76
2021/09/12 07:50:12;;;;;;;17.77;9.88;;;18.30;84.00;;;;;;5036213;28;20026;-76
2021/09/12 07:52:42;;;;;;;14.93;9.30;;;18.50;84.00;;;;;;5035049;28;20378;-77
2021/09/12 07:55:09;;;;;;;;;;;18.60;83.40;;;;;;5036331;28;20097;-77
2021/09/12 07:57:39;;;;;;;20.80;10.05;;;18.70;82.80;;;;;;5036405;28;20354;-77
2021/09/12 08:00:06;;;;;;;14.23;6.75;;;18.80;82.30;;;;;;5035523;28;20033;-77
2021/09/12 08:02:32;;;;;;;11.57;6.28;;;18.90;83.30;;;;;;5035407;28;20033;-77
2021/09/12 08:04:57;;;;;;;22.95;11.50;;;19.00;83.90;;;;;;5035448;28;20044;-76
2021/09/12 08:07:23;;;;;;;17.70;7.90;;;19.00;83.60;;;;;;5034382;28;20029;-77
2021/09/12 08:09:49;;;;;;;24.00;13.00;;;19.10;83.90;;;;;;5035160;28;20071;-78
2021/09/12 08:12:14;;;;;;;15.00;6.90;;;19.20;82.70;;;;;;5034340;28;20107;-77
2021/09/12 08:14:40;;;;;;;22.60;8.93;;;19.30;83.10;;;;;;5035030;28;20513;-76
2021/09/12 08:17:06;;;;;;;18.83;9.93;;;19.30;83.10;;;;;;5033903;28;20032;-76
2021/09/12 08:19:31;;;;;;;20.70;11.73;;;19.30;81.40;;;;;;5034746;28;20027;-77
2021/09/12 08:21:57;;;;;;;19.58;11.65;;;19.30;80.70;;;;;;5034917;28;20060;-77
2021/09/12 08:24:23;;;;;;;24.80;13.52;;;19.40;80.60;;;;;;5035071;28;20045;-76
2021/09/12 08:26:48;;;;;;;22.67;12.90;;;19.40;80.40;;;;;;5035560;28;20060;-76
2021/09/12 08:29:14;;;;;;;22.48;12.35;;;19.60;80.30;;;;;;5033267;28;20045;-76
2021/09/12 08:31:40;;;;;;;23.13;11.43;;;19.80;80.00;;;;;;5035030;28;20030;-75
2021/09/12 08:34:08;;;;;;;23.67;14.43;;;20.00;79.40;;;;;;5034985;28;20393;-76
2021/09/12 08:36:39;;;;;;;17.48;10.90;;;20.10;77.90;;;;;;5033431;28;20022;-76
2021/09/12 08:39:05;;;;;;;22.02;13.75;;;20.20;78.70;;;;;;5034889;28;20478;-75
2021/09/12 08:41:31;;;;;;;26.50;14.05;;;20.40;77.10;;;;;;5033245;28;20025;-76
2021/09/12 08:43:58;;;;;;;23.73;13.63;;;20.40;76.80;;;;;;5034494;28;20040;-76
2021/09/12 08:46:24;;;;;;;21.40;12.93;;;20.30;77.00;;;;;;5034634;28;20422;-75
2021/09/12 08:48:51;;;;;;;21.23;13.15;;;20.20;76.40;;;;;;5035214;28;20030;-76
2021/09/12 08:51:16;;;;;;;20.75;12.77;;;20.20;77.20;;;;;;5033550;28;20037;-76
2021/09/12 08:53:42;;;;;;;25.35;14.13;;;20.30;76.90;;;;;;5033324;28;20026;-76
2021/09/12 08:56:08;;;;;;;25.33;14.07;;;20.20;77.40;;;;;;5033167;28;20067;-75
2021/09/12 08:58:34;;;;;;;25.13;16.08;;;20.20;76.80;;;;;;5032797;28;20033;-75
2021/09/12 09:01:01;;;;;;;26.90;13.63;;;20.10;77.20;;;;;;5032800;28;20040;-77
2021/09/12 09:03:38;;;;;;;25.63;15.35;;;19.90;77.30;;;;;;5032739;28;20021;-76
2021/09/12 09:06:19;;;;;;;26.05;13.85;;;19.70;78.20;;;;;;5034095;28;20084;-76
2021/09/12 09:08:56;;;;;;;27.40;15.05;;;19.60;79.20;;;;;;5047045;28;20016;-76
2021/09/12 09:11:32;;;;;;;23.10;16.23;;;19.60;79.70;;;;;;5045733;28;20044;-76
2021/09/12 09:14:15;;;;;;;25.85;15.02;;;19.50;79.30;;;;;;5050927;28;20551;-75
2021/09/12 09:16:42;;;;;;;22.95;13.27;;;19.50;79.70;;;;;;5034463;28;20030;-75
2021/09/12 09:19:08;;;;;;;22.08;14.38;;;19.60;80.00;;;;;;5035488;28;20022;-76
2021/09/12 09:21:45;;;;;;;26.50;14.38;;;19.60;79.40;;;;;;5033892;28;20081;-75
2021/09/12 09:24:15;;;;;;;23.90;14.25;;;19.70;80.20;;;;;;5032403;28;20574;-74
2021/09/12 09:26:50;;;;;;;24.85;13.55;;;19.80;78.60;;;;;;5033508;28;20351;-76
2021/09/12 09:29:28;;;;;;;21.45;12.60;;;19.90;78.70;;;;;;5033783;28;20554;-76
2021/09/12 09:32:13;;;;;;;19.52;12.13;;;20.00;79.00;;;;;;5032307;28;20036;-75
2021/09/12 09:34:41;;;;;;;21.38;12.18;;;20.10;77.90;;;;;;5033450;28;20030;-76
2021/09/12 09:37:07;;;;;;;20.48;12.55;;;20.40;78.20;;;;;;5033320;28;20032;-76
2021/09/12 09:39:41;;;;;;;18.63;10.75;;;20.80;75.80;;;;;;5032855;28;20101;-75
2021/09/12 09:42:32;;;;;;;20.95;13.10;;;20.90;75.40;;;;;;5033030;28;20083;-75
2021/09/12 09:45:19;;;;;;;17.95;10.40;;;21.00;74.90;;;;;;5030947;28;20025;-74
2021/09/12 09:47:50;;;;;;;20.60;12.43;;;20.90;75.00;;;;;;5031548;28;20131;-75
2021/09/12 09:50:27;;;;;;;22.05;12.77;;;20.80;75.40;;;;;;5032828;28;20022;-75
2021/09/12 09:52:54;;;;;;;20.92;10.45;;;20.70;75.60;;;;;;5031378;28;20094;-76
2021/09/12 09:55:25;;;;;;;19.67;11.85;;;20.60;76.10;;;;;;5031692;28;20025;-75
2021/09/12 09:57:55;;;;;;;18.25;10.95;;;20.60;76.10;;;;;;5031075;28;20021;-76
2021/09/12 10:00:23;;;;;;;20.05;12.70;;;20.70;76.70;;;;;;5032627;28;20033;-75
2021/09/12 10:02:50;;;;;;;22.27;12.82;;;20.70;75.40;;;;;;5032528;28;20072;-76
2021/09/12 10:05:19;;;;;;;21.60;11.93;;;20.70;75.90;;;;;;5032004;28;20022;-76
2021/09/12 10:07:45;;;;;;;20.95;12.65;;;20.80;75.50;;;;;;5031753;28;20018;-76
2021/09/12 10:10:12;;;;;;;23.38;13.23;;;20.80;75.00;;;;;;5032691;28;20093;-75
2021/09/12 10:12:48;;;;;;;23.92;12.50;;;20.80;75.20;;;;;;5032340;28;20454;-75
2021/09/12 10:15:20;;;;;;;18.92;11.48;;;20.70;75.70;;;;;;5031269;28;20071;-75
2021/09/12 10:17:46;;;;;;;21.15;13.85;;;20.70;76.00;;;;;;5030834;28;20029;-76
2021/09/12 10:20:15;;;;;;;27.38;13.30;;;20.60;76.10;;;;;;5031145;28;20056;-75
2021/09/12 10:22:50;;;;;;;22.00;12.50;;;20.50;77.20;;;;;;5032184;28;20128;-75
2021/09/12 10:25:15;;;;;;;14.40;10.55;;;20.50;77.20;;;;;;5032432;28;20021;-75
2021/09/12 10:27:42;;;;;;;18.80;12.63;;;20.50;77.70;;;;;;5032234;28;20028;-75
2021/09/12 10:30:33;;;;;;;20.88;13.65;;;20.50;77.80;;;;;;5032451;28;20588;-75
2021/09/12 10:33:20;;;;;;;17.73;11.05;;;20.40;77.70;;;;;;5032604;28;20021;-76
2021/09/12 10:35:51;;;;;;;19.83;12.45;;;20.40;78.30;;;;;;5030725;28;20026;-75
2021/09/12 10:38:36;;;;;;;24.10;16.38;;;20.30;77.10;;;;;;5031909;28;20490;-77
2021/09/12 10:41:01;;;;;;;24.83;15.73;;;20.20;77.10;;;;;;5030811;28;20466;-76
2021/09/12 10:43:27;;;;;;;21.10;15.10;;;20.20;77.80;;;;;;5032305;28;20029;-76
2021/09/12 10:46:04;;;;;;;24.80;16.92;;;20.10;78.30;;;;;;5032003;28;20115;-75
2021/09/12 10:48:50;;;;;;;22.00;14.75;;;20.10;78.30;;;;;;5030740;28;20030;-75
2021/09/12 10:51:18;;;;;;;26.63;16.10;;;20.10;78.70;;;;;;5024875;28;20124;-76
2021/09/12 10:53:44;;;;;;;21.83;15.45;;;20.20;78.40;;;;;;5030618;28;20072;-75
2021/09/12 10:56:15;;;;;;;24.73;16.80;;;20.20;78.40;;;;;;5032736;28;20409;-76
2021/09/12 10:58:43;;;;;;;24.20;15.02;;;20.20;78.70;;;;;;5038666;28;20032;-75
2021/09/12 11:01:27;;;;;;;26.50;18.33;;;20.10;78.60;;;;;;5052224;28;20094;-75
2021/09/12 11:03:58;;;;;;;30.98;18.30;;;20.10;79.00;;;;;;5054549;28;20032;-75
2021/09/12 11:06:28;;;;;;;27.38;17.35;;;20.00;79.70;;;;;;5058401;28;20050;-76
2021/09/12 11:08:53;;;;;;;26.20;17.80;;;19.90;79.70;;;;;;5074762;28;20028;-75
2021/09/12 11:11:19;;;;;;;24.25;16.30;;;20.00;80.00;;;;;;5075917;28;20535;-75
2021/09/12 11:13:45;;;;;;;27.60;16.40;;;20.00;79.90;;;;;;5048053;28;20064;-76
2021/09/12 11:16:19;;;;;;;29.50;17.90;;;20.20;80.00;;;;;;5051193;28;20024;-76
2021/09/12 11:18:49;;;;;;;28.50;18.38;;;20.60;79.00;;;;;;5054856;28;20020;-76
2021/09/12 11:21:45;;;;;;;28.80;19.20;;;21.00;77.70;;;;;;5055425;28;20351;-76
2021/09/12 11:24:17;;;;;;;28.98;19.25;;;21.40;75.30;;;;;;5047443;28;20122;-75
2021/09/12 11:26:53;;;;;;;34.58;20.25;;;21.50;75.50;;;;;;5055190;28;20048;-76
2021/09/12 11:29:21;;;;;;;29.23;18.00;;;21.40;75.00;;;;;;5043735;28;20049;-75
2021/09/12 11:31:50;;;;;;;33.45;20.50;;;21.30;75.50;;;;;;5033736;28;20050;-76
2021/09/12 11:34:17;;;;;;;29.52;20.00;;;21.10;75.40;;;;;;5035346;28;20026;-75
2021/09/12 11:36:48;;;;;;;31.17;20.15;;;21.00;76.30;;;;;;5034832;28;20041;-75
2021/09/12 11:39:20;;;;;;;32.80;21.95;;;20.80;77.20;;;;;;5034807;28;20064;-77
2021/09/12 11:41:46;;;;;;;30.00;17.90;;;20.80;76.90;;;;;;5034591;28;20056;-75
2021/09/12 11:44:12;;;;;;;27.92;18.75;;;20.80;77.60;;;;;;5034055;28;20108;-76
2021/09/12 11:46:43;;;;;;;25.98;17.90;;;20.80;77.70;;;;;;5033833;28;20049;-75
2021/09/12 11:49:09;;;;;;;25.45;18.02;;;20.70;78.10;;;;;;5034309;28;20155;-74
2021/09/12 11:51:37;;;;;;;24.08;18.45;;;20.80;78.10;;;;;;5035365;28;20057;-75
2021/09/12 11:54:12;;;;;;;27.73;19.88;;;20.90;78.10;;;;;;5035931;28;20021;-75
2021/09/12 11:56:41;;;;;;;26.70;19.35;;;21.00;77.40;;;;;;5035642;28;20032;-75
2021/09/12 11:59:09;;;;;;;31.40;20.48;;;21.10;77.70;;;;;;5035479;28;20458;-74
2021/09/12 12:01:36;;;;;;;31.02;20.42;;;21.20;77.10;;;;;;5035155;28;20036;-77
2021/09/12 12:04:04;;;;;;;29.40;20.33;;;21.20;77.20;;;;;;5035291;28;20033;-76
2021/09/12 12:06:30;;;;;;;25.60;18.70;;;21.30;76.90;;;;;;5034199;28;20029;-76
2021/09/12 12:09:06;;;;;;;29.52;21.55;;;21.50;76.80;;;;;;5032899;28;20014;-74
2021/09/12 12:11:34;;;;;;;21.10;15.98;;;21.50;76.30;;;;;;5034554;28;20351;-75
2021/09/12 12:14:00;;;;;;;35.20;23.10;;;21.50;76.20;;;;;;5033507;28;20037;-76
2021/09/12 12:16:25;;;;;;;29.02;21.05;;;21.60;76.40;;;;;;5034639;28;20041;-75
2021/09/12 12:19:04;;;;;;;26.15;21.45;;;21.80;77.20;;;;;;5033038;28;20060;-75
2021/09/12 12:21:31;;;;;;;28.60;19.77;;;22.30;74.40;;;;;;5033254;28;20033;-75
2021/09/12 12:23:57;;;;;;;28.92;20.98;;;22.60;72.10;;;;;;5034609;28;20385;-76
2021/09/12 12:26:23;;;;;;;21.48;16.90;;;22.70;71.80;;;;;;5033331;28;20482;-76
2021/09/12 12:28:56;;;;;;;27.83;20.65;;;22.60;71.70;;;;;;5034485;28;20147;-74